Time;durP1;ratioP1;P1;durP2;ratioP2;P2;SDS_P1;SDS_P2;PMS_P1;PMS_P2;Temp;Humidity;BMP_temperature;BMP_pressure;BME280_temperature;BME280_humidity;BME280_pressure;Samples;Min_cycle;Max_cycle;Signal;HPM_P1;HPM_P2
2024/03/31 00:01:05;;;;;;;;;;;5.90;99.90;;;;;;5028619;28;20332;-55
2024/03/31 00:03:30;;;;;;;;;;;6.00;99.90;;;;;;5006625;28;20338;-59
2024/03/31 00:05:56;;;;;;;;;;;6.10;99.90;;;;;;5029217;28;20075;-58
2024/03/31 00:08:21;;;;;;;;;;;6.10;99.90;;;;;;5022571;28;21081;-59
2024/03/31 00:10:47;;;;;;;;;;;6.10;99.90;;;;;;5020152;28;20020;-58
2024/03/31 00:13:12;;;;;;;;;;;6.10;99.90;;;;;;5027792;28;19921;-60
2024/03/31 00:15:38;;;;;;;;;;;6.00;99.90;;;;;;5030955;28;19923;-58
2024/03/31 00:18:03;;;;;;;;;;;6.10;99.90;;;;;;5041249;28;20377;-59
2024/03/31 00:20:29;;;;;;;;;;;6.10;99.90;;;;;;5033771;28;19909;-57
2024/03/31 00:22:54;;;;;;;;;;;6.00;99.90;;;;;;5029327;28;20007;-56
2024/03/31 00:25:19;;;;;;;;;;;6.00;99.90;;;;;;5029481;28;20332;-57
2024/03/31 00:27:45;;;;;;;;;;;6.10;99.90;;;;;;5037482;28;19917;-56
2024/03/31 00:30:11;;;;;;;;;;;6.20;99.90;;;;;;5029063;28;20020;-62
2024/03/31 00:32:36;;;;;;;;;;;6.10;99.90;;;;;;5029470;28;19999;-59
2024/03/31 00:35:03;;;;;;;;;;;6.20;99.90;;;;;;5029529;28;20351;-56
2024/03/31 00:37:28;;;;;;;;;;;6.20;99.90;;;;;;5029270;28;19913;-56
2024/03/31 00:39:54;;;;;;;;;;;6.20;99.90;;;;;;5031376;28;20392;-61
2024/03/31 00:42:20;;;;;;;;;;;6.20;99.90;;;;;;5035639;28;19913;-61
2024/03/31 00:44:46;;;;;;;;;;;6.20;99.90;;;;;;5029284;28;19924;-60
2024/03/31 00:47:11;;;;;;;;;;;6.20;99.90;;;;;;5029106;28;19917;-59
2024/03/31 00:49:37;;;;;;;;;;;6.20;99.90;;;;;;5045239;28;19963;-62
2024/03/31 00:52:02;;;;;;;;;;;6.20;99.90;;;;;;5040997;28;19920;-61
2024/03/31 00:54:30;;;;;;;;;;;6.30;99.90;;;;;;5033911;28;20408;-60
2024/03/31 00:56:56;;;;;;;;;;;6.30;99.90;;;;;;5038318;28;20203;-62
2024/03/31 00:59:21;;;;;;;;;;;6.40;99.90;;;;;;5032277;28;20000;-59
2024/03/31 01:01:47;;;;;;;;;;;6.40;99.90;;;;;;5041093;28;20320;-58
2024/03/31 01:04:12;;;;;;;;;;;6.50;99.90;;;;;;5037616;28;20051;-61
2024/03/31 01:06:38;;;;;;;;;;;6.50;99.90;;;;;;5035741;28;19943;-59
2024/03/31 01:09:03;;;;;;;;;;;6.50;99.90;;;;;;5035918;28;20277;-59
2024/03/31 01:11:29;;;;;;;;;;;6.50;99.90;;;;;;5045414;28;19920;-62
2024/03/31 01:13:55;;;;;;;;;;;6.50;99.90;;;;;;5034817;28;19925;-62
2024/03/31 01:16:20;;;;;;;;;;;6.50;99.90;;;;;;5038362;28;19920;-57
2024/03/31 01:18:46;;;;;;;;;;;6.60;99.90;;;;;;5040034;28;19920;-60
2024/03/31 01:21:12;;;;;;;;;;;6.60;99.90;;;;;;5032498;28;19948;-59
2024/03/31 01:23:40;;;;;;;;;;;6.60;99.90;;;;;;5040596;28;19971;-62
2024/03/31 01:26:06;;;;;;;;;;;6.60;99.90;;;;;;5048209;28;19913;-58
2024/03/31 01:28:32;;;;;;;;;;;6.60;99.90;;;;;;5040430;28;19923;-58
2024/03/31 01:30:58;;;;;;;;;;;6.70;99.90;;;;;;5040005;28;20391;-58
2024/03/31 01:33:23;;;;;;;;;;;6.70;99.90;;;;;;5032355;28;20039;-55
2024/03/31 01:35:49;;;;;;;;;;;6.70;99.90;;;;;;5032086;28;19952;-59
2024/03/31 01:38:14;;;;;;;;;;;6.70;99.90;;;;;;5040190;28;20336;-57
2024/03/31 01:40:40;;;;;;;;;;;6.70;99.90;;;;;;5031799;28;19920;-57
2024/03/31 01:43:05;;;;;;;;;;;6.70;99.90;;;;;;5043838;28;19917;-58
2024/03/31 01:45:31;;;;;;;;;;;6.70;99.90;;;;;;5044412;28;19924;-62
2024/03/31 01:47:58;;;;;;;;;;;6.80;99.90;;;;;;5030932;28;20224;-57
2024/03/31 01:50:23;;;;;;;;;;;6.80;99.90;;;;;;5031586;28;20012;-56
2024/03/31 01:52:49;;;;;;;;;;;6.80;99.90;;;;;;5039996;28;19943;-60
2024/03/31 01:55:14;;;;;;;;;;;6.80;99.90;;;;;;5031978;28;20012;-59
2024/03/31 01:57:40;;;;;;;;;;;6.80;99.90;;;;;;5039705;28;19928;-58
2024/03/31 02:00:06;;;;;;;;;;;6.80;99.90;;;;;;5031448;28;19924;-57
2024/03/31 02:02:31;;;;;;;;;;;6.80;99.90;;;;;;5031671;28;19923;-61
2024/03/31 02:04:57;;;;;;;;;;;6.90;99.90;;;;;;5031652;28;19939;-58
2024/03/31 02:07:22;;;;;;;;;;;6.90;99.90;;;;;;5031399;28;19917;-56
2024/03/31 02:09:47;;;;;;;;;;;6.90;99.90;;;;;;5039284;28;19917;-59
2024/03/31 02:12:13;;;;;;;;;;;6.90;99.90;;;;;;5031554;28;19977;-58
2024/03/31 02:14:38;;;;;;;;;;;6.90;99.90;;;;;;5031474;28;19917;-59
2024/03/31 02:17:04;;;;;;;;;;;6.90;99.90;;;;;;5039383;28;19921;-59
2024/03/31 02:19:29;;;;;;;;;;;6.90;99.90;;;;;;5030951;28;20399;-59
2024/03/31 02:21:55;;;;;;;;;;;6.90;99.90;;;;;;5033659;28;19917;-61
2024/03/31 02:24:20;;;;;;;;;;;7.00;99.90;;;;;;5037019;28;19924;-57
2024/03/31 02:26:46;;;;;;;;;;;7.00;99.90;;;;;;5031058;28;19925;-59
2024/03/31 02:29:11;;;;;;;;;;;7.00;99.90;;;;;;5035209;28;20397;-60
2024/03/31 02:31:37;;;;;;;;;;;6.90;99.90;;;;;;5034651;28;20436;-59
2024/03/31 02:34:02;;;;;;;;;;;7.00;99.90;;;;;;5039189;28;19917;-57
2024/03/31 02:36:28;;;;;;;;;;;7.00;99.90;;;;;;5030921;28;19919;-61
2024/03/31 02:38:54;;;;;;;;;;;7.00;99.90;;;;;;5038978;28;20010;-60
2024/03/31 02:41:19;;;;;;;;;;;7.00;99.90;;;;;;5036872;28;19912;-57
2024/03/31 02:43:44;;;;;;;;;;;7.00;99.90;;;;;;5033320;28;19953;-59
2024/03/31 02:46:10;;;;;;;;;;;7.00;99.90;;;;;;5030713;28;19924;-59
2024/03/31 02:48:35;;;;;;;;;;;7.00;99.90;;;;;;5031237;28;20371;-58
2024/03/31 02:51:01;;;;;;;;;;;6.90;99.90;;;;;;5030490;28;19971;-58
2024/03/31 02:53:26;;;;;;;;;;;6.90;99.90;;;;;;5030571;28;19919;-57
2024/03/31 02:55:52;;;;;;;;;;;7.00;99.90;;;;;;5030495;28;19918;-60
2024/03/31 02:58:17;;;;;;;;;;;6.90;99.90;;;;;;5038784;28;19921;-61
2024/03/31 03:00:43;;;;;;;;;;;6.90;99.90;;;;;;5030019;28;20035;-59
2024/03/31 03:03:09;;;;;;;;;;;7.00;99.90;;;;;;5039125;28;19917;-60
2024/03/31 03:05:34;;;;;;;;;;;7.00;99.90;;;;;;5030641;28;19964;-58
2024/03/31 03:08:00;;;;;;;;;;;7.00;99.90;;;;;;5030131;28;19940;-58
2024/03/31 03:10:25;;;;;;;;;;;7.00;99.90;;;;;;5030383;28;19967;-55
2024/03/31 03:12:51;;;;;;;;;;;7.00;99.90;;;;;;5038592;28;20519;-59
2024/03/31 03:15:16;;;;;;;;;;;7.00;99.90;;;;;;5030333;28;19917;-60
2024/03/31 03:17:42;;;;;;;;;;;7.00;99.90;;;;;;5038458;28;19921;-59
2024/03/31 03:20:08;;;;;;;;;;;7.00;99.90;;;;;;5037783;28;19917;-58
2024/03/31 03:22:36;;;;;;;;;;;7.00;99.90;;;;;;5038659;28;19917;-57
2024/03/31 03:25:01;;;;;;;;;;;7.00;99.90;;;;;;5038642;28;19919;-56
2024/03/31 03:27:27;;;;;;;;;;;7.00;99.90;;;;;;5030148;28;19921;-58
2024/03/31 03:29:53;;;;;;;;;;;7.00;99.90;;;;;;5039829;28;19913;-59
2024/03/31 03:32:18;;;;;;;;;;;7.00;99.90;;;;;;5044846;28;19917;-58
2024/03/31 03:34:44;;;;;;;;;;;7.00;99.90;;;;;;5038229;28;20413;-58
2024/03/31 03:37:09;;;;;;;;;;;7.00;99.90;;;;;;5038308;28;19913;-60
2024/03/31 03:39:36;;;;;;;;;;;7.00;99.90;;;;;;5029702;28;19921;-58
2024/03/31 03:42:02;;;;;;;;;;;7.00;99.90;;;;;;5033023;28;19974;-61
2024/03/31 03:44:28;;;;;;;;;;;7.00;99.90;;;;;;5043196;28;19975;-59
2024/03/31 03:46:53;;;;;;;;;;;7.00;99.90;;;;;;5037968;28;20377;-60
2024/03/31 03:49:19;;;;;;;;;;;7.00;99.90;;;;;;5029496;28;19917;-61
2024/03/31 03:51:44;;;;;;;;;;;7.10;99.90;;;;;;5030217;28;19968;-62
2024/03/31 03:54:09;;;;;;;;;;;7.10;99.90;;;;;;5034143;28;19913;-61
2024/03/31 03:56:38;;;;;;;;;;;7.10;99.90;;;;;;5041408;28;19973;-62
2024/03/31 03:59:04;;;;;;;;;;;7.00;99.90;;;;;;5040741;28;20383;-63
2024/03/31 04:01:29;;;;;;;;;;;7.10;99.90;;;;;;5034635;28;19921;-62
2024/03/31 04:03:55;;;;;;;;;;;7.10;99.90;;;;;;5029722;28;19921;-60
2024/03/31 04:06:20;;;;;;;;;;;7.00;99.90;;;;;;5029863;28;19956;-60
2024/03/31 04:08:46;;;;;;;;;;;7.00;99.90;;;;;;5045658;28;19924;-61
2024/03/31 04:11:11;;;;;;;;;;;7.00;99.90;;;;;;5030022;28;20424;-63
2024/03/31 04:13:37;;;;;;;;;;;7.10;99.90;;;;;;5029840;28;19924;-61
2024/03/31 04:16:04;;;;;;;;;;;7.10;99.90;;;;;;5029586;28;19967;-61
2024/03/31 04:18:29;;;;;;;;;;;7.10;99.90;;;;;;5029801;28;20115;-61
2024/03/31 04:20:55;;;;;;;;;;;7.10;99.90;;;;;;5029335;28;20467;-57
2024/03/31 04:23:21;;;;;;;;;;;7.10;99.90;;;;;;5043667;28;20440;-56
2024/03/31 04:25:47;;;;;;;;;;;7.10;99.90;;;;;;5041181;28;19963;-60
2024/03/31 04:28:13;;;;;;;;;;;7.10;99.90;;;;;;5036604;28;19917;-60
2024/03/31 04:30:39;;;;;;;;;;;7.10;99.90;;;;;;5045626;28;19970;-59
2024/03/31 04:33:04;;;;;;;;;;;7.10;99.90;;;;;;5035884;28;19913;-61
2024/03/31 04:35:34;;;;;;;;;;;7.10;99.90;;;;;;5045100;28;20023;-60
2024/03/31 04:38:00;;;;;;;;;;;7.00;99.90;;;;;;5033614;28;19919;-56
2024/03/31 04:40:25;;;;;;;;;;;7.10;99.90;;;;;;5039096;28;20001;-57
2024/03/31 04:42:51;;;;;;;;;;;7.10;99.90;;;;;;5043349;28;19913;-55
2024/03/31 04:45:17;;;;;;;;;;;7.10;99.90;;;;;;5038380;28;20015;-56
2024/03/31 04:47:42;;;;;;;;;;;7.10;99.90;;;;;;5036275;28;20004;-58
2024/03/31 04:50:08;;;;;;;;;;;7.00;99.90;;;;;;5040670;28;19917;-58
2024/03/31 04:52:33;;;;;;;;;;;7.10;99.90;;;;;;5048694;28;19974;-57
2024/03/31 04:54:59;;;;;;;;;;;7.00;99.90;;;;;;5033717;28;19917;-58
2024/03/31 04:57:24;;;;;;;;;;;7.10;99.90;;;;;;5038915;28;19913;-60
2024/03/31 04:59:49;;;;;;;;;;;7.10;99.90;;;;;;5034411;28;20023;-62
2024/03/31 05:02:15;;;;;;;;;;;7.10;99.90;;;;;;5038051;28;19917;-58
2024/03/31 05:04:40;;;;;;;;;;;7.10;99.90;;;;;;5036122;28;19983;-61
2024/03/31 05:07:06;;;;;;;;;;;7.10;99.90;;;;;;5040464;28;19917;-61
2024/03/31 05:09:32;;;;;;;;;;;7.10;99.90;;;;;;5039228;28;19924;-58
2024/03/31 05:11:58;;;;;;;;;;;7.20;99.90;;;;;;5036158;28;20381;-58
2024/03/31 05:14:23;;;;;;;;;;;7.10;99.90;;;;;;5044659;28;19924;-56
2024/03/31 05:16:49;;;;;;;;;;;7.10;99.90;;;;;;5043263;28;20369;-61
2024/03/31 05:19:14;;;;;;;;;;;7.10;99.90;;;;;;5040301;28;19994;-61
2024/03/31 05:21:39;;;;;;;;;;;7.10;99.90;;;;;;5040819;28;19913;-61
2024/03/31 05:24:05;;;;;;;;;;;7.10;99.90;;;;;;5040891;28;19920;-57
2024/03/31 05:26:30;;;;;;;;;;;7.10;99.90;;;;;;5032456;28;19987;-58
2024/03/31 05:28:56;;;;;;;;;;;7.10;99.90;;;;;;5031762;28;19917;-56
2024/03/31 05:31:21;;;;;;;;;;;7.10;99.90;;;;;;5032497;28;19917;-57
2024/03/31 05:33:47;;;;;;;;;;;7.20;99.90;;;;;;5032202;28;20286;-62
2024/03/31 05:36:12;;;;;;;;;;;7.20;99.90;;;;;;5040245;28;19917;-60
2024/03/31 05:38:37;;;;;;;;;;;7.30;99.90;;;;;;5031517;28;19983;-64
2024/03/31 05:41:03;;;;;;;;;;;7.30;99.90;;;;;;5032533;28;19917;-60
2024/03/31 05:43:28;;;;;;;;;;;7.30;99.90;;;;;;5039485;28;20315;-58
2024/03/31 05:45:54;;;;;;;;;;;7.30;99.90;;;;;;5039228;28;20482;-57
2024/03/31 05:48:19;;;;;;;;;;;7.30;99.90;;;;;;5044740;28;20230;-55
2024/03/31 05:50:45;;;;;;;;;;;7.30;99.90;;;;;;5034224;28;19930;-58
2024/03/31 05:53:10;;;;;;;;;;;7.30;99.90;;;;;;5039458;28;19957;-55
2024/03/31 05:55:36;;;;;;;;;;;7.30;99.90;;;;;;5039049;28;20377;-57
2024/03/31 05:58:01;;;;;;;;;;;7.30;99.90;;;;;;5034039;28;19981;-62
2024/03/31 06:00:27;;;;;;;;;;;7.30;99.90;;;;;;5036182;28;19933;-56
2024/03/31 06:02:52;;;;;;;;;;;7.40;99.90;;;;;;5031408;28;20344;-56
2024/03/31 06:05:18;;;;;;;;;;;7.40;99.90;;;;;;5030946;28;19920;-61
2024/03/31 06:07:50;;;;;;;;;;;7.50;99.90;;;;;;5030623;28;20265;-59
2024/03/31 06:10:16;;;;;;;;;;;7.40;99.90;;;;;;5030418;28;19932;-60
2024/03/31 06:12:41;;;;;;;;;;;7.40;99.90;;;;;;5030987;28;20475;-61
2024/03/31 06:15:07;;;;;;;;;;;7.40;99.90;;;;;;5034464;28;20451;-59
2024/03/31 06:17:33;;;;;;;;;;;7.50;99.90;;;;;;5035247;28;19924;-62
2024/03/31 06:19:58;;;;;;;;;;;7.60;99.90;;;;;;5030099;28;19924;-62
2024/03/31 06:22:24;;;;;;;;;;;7.60;99.90;;;;;;5030600;28;19920;-58
2024/03/31 06:24:49;;;;;;;;;;;7.60;99.90;;;;;;5030416;28;19924;-57
2024/03/31 06:27:15;;;;;;;;;;;7.50;99.90;;;;;;5030355;28;20344;-57
2024/03/31 06:29:40;;;;;;;;;;;7.60;99.90;;;;;;5038551;28;19927;-61
2024/03/31 06:32:07;;;;;;;;;;;7.50;99.90;;;;;;5038583;28;20308;-60
2024/03/31 06:34:32;;;;;;;;;;;7.50;99.90;;;;;;5037605;28;19913;-57
2024/03/31 06:36:58;;;;;;;;;;;7.70;99.90;;;;;;5039561;28;20411;-57
2024/03/31 06:39:23;;;;;;;;;;;7.60;99.90;;;;;;5029668;28;19929;-58
2024/03/31 06:41:49;;;;;;;;;;;7.70;99.90;;;;;;5030436;28;19917;-58
2024/03/31 06:44:14;;;;;;;;;;;7.80;99.90;;;;;;5038739;28;20008;-61
2024/03/31 06:46:39;;;;;;;;;;;7.90;99.90;;;;;;5012157;28;19924;-57
2024/03/31 06:49:05;;;;;;;;;;;8.00;99.90;;;;;;5037858;28;19917;-58
2024/03/31 06:51:31;;;;;;;;;;;8.10;99.90;;;;;;5038654;28;19944;-60
2024/03/31 06:53:56;;;;;;;;;;;8.00;99.90;;;;;;5029561;28;19937;-59
2024/03/31 06:56:22;;;;;;;;;;;8.10;99.90;;;;;;5029299;28;19979;-60
2024/03/31 06:58:47;;;;;;;;;;;8.20;99.90;;;;;;5029365;28;19921;-58
2024/03/31 07:01:14;;;;;;;;;;;8.20;99.90;;;;;;5030167;28;19967;-60
2024/03/31 07:03:39;;;;;;;;;;;8.00;99.90;;;;;;5037738;28;19909;-59
2024/03/31 07:06:05;;;;;;;;;;;8.00;99.90;;;;;;5029916;28;19921;-59
2024/03/31 07:08:30;;;;;;;;;;;8.00;99.90;;;;;;5011908;28;20420;-62
2024/03/31 07:10:56;;;;;;;;;;;8.20;99.90;;;;;;5019520;28;20410;-61
2024/03/31 07:13:21;;;;;;;;;;;8.20;99.90;;;;;;5038229;28;19939;-62
2024/03/31 07:15:47;;;;;;;;;;;8.30;99.90;;;;;;5029920;28;19913;-63
2024/03/31 07:18:12;;;;;;;;;;;8.50;99.90;;;;;;5029387;28;19950;-63
2024/03/31 07:20:38;;;;;;;;;;;8.80;99.90;;;;;;5029254;28;20015;-63
2024/03/31 07:23:04;;;;;;;;;;;8.80;99.90;;;;;;5037801;28;20258;-62
2024/03/31 07:25:31;;;;;;;;;;;8.70;99.90;;;;;;5029652;28;19913;-62
2024/03/31 07:27:56;;;;;;;;;;;8.90;99.90;;;;;;5029303;28;20286;-61
2024/03/31 07:30:22;;;;;;;;;;;8.90;99.90;;;;;;5033887;28;19976;-62
2024/03/31 07:32:47;;;;;;;;;;;9.00;99.90;;;;;;5038023;28;19991;-63
2024/03/31 07:35:13;;;;;;;;;;;9.10;99.90;;;;;;5041832;28;19916;-63
2024/03/31 07:37:38;;;;;;;;;;;9.40;99.90;;;;;;5041456;28;20071;-60
2024/03/31 07:40:04;;;;;;;;;;;9.60;99.90;;;;;;5019219;28;19913;-62
2024/03/31 07:42:30;;;;;;;;;;;9.80;99.90;;;;;;5011875;28;19955;-63
2024/03/31 07:44:55;;;;;;;;;;;10.00;99.90;;;;;;5029250;28;20332;-61
2024/03/31 07:47:21;;;;;;;;;;;10.10;99.90;;;;;;5037421;28;19921;-57
2024/03/31 07:49:46;;;;;;;;;;;10.30;99.90;;;;;;5037019;28;19917;-61
2024/03/31 07:52:11;;;;;;;;;;;10.50;99.90;;;;;;5037563;28;20071;-57
2024/03/31 07:54:37;;;;;;;;;;;10.80;99.90;;;;;;5029218;28;19924;-58
2024/03/31 07:57:02;;;;;;;;;;;11.00;99.90;;;;;;5029041;28;19928;-58
2024/03/31 07:59:28;;;;;;;;;;;11.20;99.90;;;;;;5028816;28;19922;-58
2024/03/31 08:01:54;;;;;;;;;;;11.50;99.90;;;;;;5038878;28;19963;-61
2024/03/31 08:04:20;;;;;;;;;;;11.80;99.90;;;;;;5035755;28;19941;-57
2024/03/31 08:06:45;;;;;;;;;;;12.20;99.90;;;;;;5039780;28;20010;-60
2024/03/31 08:09:11;;;;;;;;;;;12.60;99.90;;;;;;5041142;28;19913;-58
2024/03/31 08:11:36;;;;;;;;;;;12.90;99.90;;;;;;5040990;28;20386;-58
2024/03/31 08:14:02;;;;;;;;;;;13.40;99.90;;;;;;5042307;28;19942;-62
2024/03/31 08:16:27;;;;;;;;;;;13.80;99.90;;;;;;5041412;28;19913;-59
2024/03/31 08:18:53;;;;;;;;;;;14.30;99.90;;;;;;5040723;28;19928;-59
2024/03/31 08:21:19;;;;;;;;;;;14.90;99.90;;;;;;5033078;28;19913;-58
2024/03/31 08:23:44;;;;;;;;;;;15.20;99.90;;;;;;5032603;28;19913;-61
2024/03/31 08:26:10;;;;;;;;;;;15.60;99.90;;;;;;5041065;28;19909;-60
2024/03/31 08:28:35;;;;;;;;;;;16.10;99.90;;;;;;5032906;28;20449;-55
2024/03/31 08:31:01;;;;;;;;;;;16.70;99.90;;;;;;5040407;28;19913;-56
2024/03/31 08:33:26;;;;;;;;;;;17.30;99.90;;;;;;5032757;28;20008;-61
2024/03/31 08:35:52;;;;;;;;;;;17.70;99.90;;;;;;5032537;28;19983;-58
2024/03/31 08:38:17;;;;;;;;;;;17.70;99.90;;;;;;5037159;28;20468;-61
2024/03/31 08:40:45;;;;;;;;;;;18.70;99.90;;;;;;5035939;28;20339;-64
2024/03/31 08:43:11;;;;;;;;;;;19.10;99.90;;;;;;5040868;28;19913;-57
2024/03/31 08:45:37;;;;;;;;;;;19.50;99.90;;;;;;5032427;28;19921;-59
2024/03/31 08:48:03;;;;;;;;;;;19.50;99.90;;;;;;5035077;28;19925;-61
2024/03/31 08:50:28;;;;;;;;;;;19.80;99.90;;;;;;5037504;28;19924;-63
2024/03/31 08:52:54;;;;;;;;;;;20.20;99.90;;;;;;5032576;28;19921;-54
2024/03/31 08:55:19;;;;;;;;;;;20.50;99.90;;;;;;5041119;28;19920;-58
2024/03/31 08:57:45;;;;;;;;;;;20.40;99.90;;;;;;5045094;28;19955;-59
2024/03/31 09:00:11;;;;;;;;;;;20.00;99.90;;;;;;5042478;28;19913;-61
2024/03/31 09:02:38;;;;;;;;;;;19.90;99.90;;;;;;5043573;28;19917;-60
2024/03/31 09:05:03;;;;;;;;;;;20.00;99.90;;;;;;5035330;28;19921;-58
2024/03/31 09:07:31;;;;;;;;;;;20.40;99.90;;;;;;5032059;28;19970;-61
2024/03/31 09:09:57;;;;;;;;;;;20.30;99.90;;;;;;5041523;28;20404;-60
2024/03/31 09:12:22;;;;;;;;;;;20.70;99.90;;;;;;5046543;28;19943;-55
2024/03/31 09:14:48;;;;;;;;;;;20.50;99.90;;;;;;5031980;28;19959;-59
2024/03/31 09:17:14;;;;;;;;;;;20.10;99.90;;;;;;5031041;28;19974;-60
2024/03/31 09:19:40;;;;;;;;;;;20.30;99.90;;;;;;5047311;28;19913;-58
2024/03/31 09:22:06;;;;;;;;;;;19.70;99.90;;;;;;5032111;28;20769;-59
2024/03/31 09:24:32;;;;;;;;;;;19.20;99.90;;;;;;5013882;28;19913;-59
2024/03/31 09:26:57;;;;;;;;;;;19.20;99.90;;;;;;5040132;28;19919;-61
2024/03/31 09:29:27;;;;;;;;;;;19.40;99.90;;;;;;5036809;28;19916;-58
2024/03/31 09:32:03;;;;;;;;;;;19.10;99.90;;;;;;5043806;28;20341;-59
2024/03/31 09:34:28;;;;;;;;;;;19.20;99.90;;;;;;5045474;28;20340;-59
2024/03/31 09:36:55;;;;;;;;;;;19.20;99.90;;;;;;5039854;28;20016;-60
2024/03/31 09:39:20;;;;;;;;;;;19.00;99.90;;;;;;5030727;28;19939;-58
2024/03/31 09:41:49;;;;;;;;;;;19.20;99.90;;;;;;5032080;28;19921;-57
2024/03/31 09:44:15;;;;;;;;;;;19.20;99.90;;;;;;5031467;28;20380;-57
2024/03/31 09:46:40;;;;;;;;;;;19.50;99.90;;;;;;5039477;28;20008;-57
2024/03/31 09:49:08;;;;;;;;;;;19.80;99.90;;;;;;5047347;28;19921;-58
2024/03/31 09:51:34;;;;;;;;;;;19.60;99.90;;;;;;5039689;28;19924;-56
2024/03/31 09:54:01;;;;;;;;;;;19.80;99.90;;;;;;5031377;28;19909;-58
2024/03/31 09:56:34;;;;;;;;;;;19.70;99.90;;;;;;5037133;28;20374;-59
2024/03/31 09:59:02;;;;;;;;;;;19.20;99.90;;;;;;5016186;28;20414;-59
2024/03/31 10:01:28;;;;;;;;;;;18.90;99.90;;;;;;5045004;28;20347;-62
2024/03/31 10:03:55;;;;;;;;;;;18.40;99.90;;;;;;5031117;28;19919;-59
2024/03/31 10:06:21;;;;;;;;;;;17.80;99.90;;;;;;5030828;28;20344;-61
2024/03/31 10:08:47;;;;;;;;;;;17.20;99.90;;;;;;5038498;28;19917;-61
2024/03/31 10:11:12;;;;;;;;;;;16.90;99.90;;;;;;5034926;28;19925;-59
2024/03/31 10:13:38;;;;;;;;;;;16.60;99.90;;;;;;5035253;28;20065;-59
2024/03/31 10:16:04;;;;;;;;;;;16.50;99.90;;;;;;5038906;28;19921;-60
2024/03/31 10:18:31;;;;;;;;;;;16.60;99.90;;;;;;5030972;28;19917;-58
2024/03/31 10:20:57;;;;;;;;;;;16.70;99.90;;;;;;5030597;28;20453;-58
2024/03/31 10:23:24;;;;;;;;;;;16.40;99.90;;;;;;5038797;28;20015;-57
2024/03/31 10:25:51;;;;;;;;;;;16.70;99.90;;;;;;5038864;28;20015;-57
2024/03/31 10:28:17;;;;;;;;;;;17.00;99.90;;;;;;5038948;28;20304;-60
2024/03/31 10:30:43;;;;;;;;;;;16.90;99.90;;;;;;5029066;28;20404;-60
2024/03/31 10:33:09;;;;;;;;;;;16.70;99.90;;;;;;5033717;28;19916;-54
2024/03/31 10:35:36;;;;;;;;;;;17.10;99.90;;;;;;5016383;28;19914;-59
2024/03/31 10:38:01;;;;;;;;;;;17.00;99.90;;;;;;5038528;28;19982;-59
2024/03/31 10:40:28;;;;;;;;;;;17.10;99.90;;;;;;5035807;28;19984;-61
2024/03/31 10:42:54;;;;;;;;;;;17.10;99.90;;;;;;5033625;28;20406;-54
2024/03/31 10:45:19;;;;;;;;;;;17.00;99.90;;;;;;5037081;28;19961;-56
2024/03/31 10:47:45;;;;;;;;;;;17.30;99.90;;;;;;5038164;28;19921;-61
2024/03/31 10:50:11;;;;;;;;;;;17.60;99.90;;;;;;5029814;28;20381;-61
2024/03/31 10:52:39;;;;;;;;;;;18.00;99.90;;;;;;5038475;28;19956;-59
2024/03/31 10:55:08;;;;;;;;;;;18.00;99.90;;;;;;5030046;28;20290;-61
2024/03/31 10:57:37;;;;;;;;;;;18.20;99.90;;;;;;5044842;28;20012;-55
2024/03/31 11:00:05;;;;;;;;;;;17.80;99.90;;;;;;5039236;28;19929;-60
2024/03/31 11:02:33;;;;;;;;;;;18.00;99.90;;;;;;5030174;28;20020;-60
2024/03/31 11:05:00;;;;;;;;;;;17.70;99.90;;;;;;5030063;28;20008;-60
2024/03/31 11:07:26;;;;;;;;;;;17.90;99.90;;;;;;5029753;28;20270;-60
2024/03/31 11:09:52;;;;;;;;;;;17.80;99.90;;;;;;5029249;28;20342;-54
2024/03/31 11:12:20;;;;;;;;;;;18.00;99.90;;;;;;5034498;28;20718;-57
2024/03/31 11:14:46;;;;;;;;;;;18.20;99.90;;;;;;5039942;28;19922;-58
2024/03/31 11:17:11;;;;;;;;;;;18.60;99.90;;;;;;5010121;28;20012;-56
2024/03/31 11:19:37;;;;;;;;;;;18.10;99.90;;;;;;5027608;28;20028;-59
2024/03/31 11:22:03;;;;;;;;;;;18.10;99.90;;;;;;5037308;28;20443;-61
2024/03/31 11:24:29;;;;;;;;;;;18.30;99.90;;;;;;5035257;28;19943;-55
2024/03/31 11:26:55;;;;;;;;;;;18.30;99.90;;;;;;5039673;28;20278;-54
2024/03/31 11:29:21;;;;;;;;;;;18.30;99.90;;;;;;5028663;28;19917;-53
2024/03/31 11:31:48;;;;;;;;;;;17.90;99.90;;;;;;5037776;28;19917;-55
2024/03/31 11:34:13;;;;;;;;;;;17.60;99.90;;;;;;5029417;28;19913;-59
2024/03/31 11:36:41;;;;;;;;;;;17.30;99.90;;;;;;5036849;28;19920;-59
2024/03/31 11:39:07;;;;;;;;;;;17.40;99.90;;;;;;5037732;28;19987;-59
2024/03/31 11:41:32;;;;;;;;;;;17.30;99.90;;;;;;5029324;28;20377;-57
2024/03/31 11:43:58;;;;;;;;;;;17.50;99.90;;;;;;5037738;28;20003;-55
2024/03/31 11:46:23;;;;;;;;;;;18.20;99.90;;;;;;5034464;28;19917;-56
2024/03/31 11:48:49;;;;;;;;;;;18.60;99.90;;;;;;5048410;28;20304;-58
2024/03/31 11:51:14;;;;;;;;;;;19.00;99.90;;;;;;5037640;28;19966;-58
2024/03/31 11:53:40;;;;;;;;;;;19.20;99.90;;;;;;5029262;28;19932;-55
2024/03/31 11:56:06;;;;;;;;;;;19.30;99.90;;;;;;5031930;28;19967;-56
2024/03/31 11:58:35;;;;;;;;;;;19.50;99.90;;;;;;5040805;28;19917;-54
2024/03/31 12:01:00;;;;;;;;;;;19.60;99.90;;;;;;5038102;28;19971;-58
2024/03/31 12:03:26;;;;;;;;;;;19.80;99.90;;;;;;5034122;28;19968;-60
2024/03/31 12:05:51;;;;;;;;;;;19.80;99.90;;;;;;5022679;28;19928;-56
2024/03/31 12:08:18;;;;;;;;;;;20.00;99.90;;;;;;5024292;28;20001;-62
2024/03/31 12:10:46;;;;;;;;;;;20.30;99.90;;;;;;5023351;28;19921;-58
2024/03/31 12:13:12;;;;;;;;;;;20.80;99.90;;;;;;5023357;28;19917;-56
2024/03/31 12:15:38;;;;;;;;;;;21.10;99.90;;;;;;5024136;28;19932;-59
2024/03/31 12:18:04;;;;;;;;;;;21.00;99.90;;;;;;5023624;28;20032;-57
2024/03/31 12:20:29;;;;;;;;;;;20.70;99.90;;;;;;5022789;28;19913;-54
2024/03/31 12:22:55;;;;;;;;;;;20.40;99.90;;;;;;5024526;28;20011;-52
2024/03/31 12:25:20;;;;;;;;;;;20.40;99.90;;;;;;5023444;28;20266;-54
2024/03/31 12:27:46;;;;;;;;;;;20.20;99.90;;;;;;5022753;28;19921;-61
2024/03/31 12:30:12;;;;;;;;;;;20.20;99.90;;;;;;5025688;28;19956;-56
2024/03/31 12:32:38;;;;;;;;;;;20.10;99.90;;;;;;5036024;28;20364;-58
2024/03/31 12:35:04;;;;;;;;;;;20.30;99.90;;;;;;5029793;28;20047;-56
2024/03/31 12:37:30;;;;;;;;;;;20.10;99.90;;;;;;5034735;28;20399;-52
2024/03/31 12:39:56;;;;;;;;;;;20.50;99.90;;;;;;5030162;28;19917;-53
2024/03/31 12:42:22;;;;;;;;;;;20.60;99.90;;;;;;5033781;28;20285;-57
2024/03/31 12:44:54;;;;;;;;;;;20.60;99.90;;;;;;5039954;28;20400;-56
2024/03/31 12:47:20;;;;;;;;;;;20.80;99.90;;;;;;5033217;28;19917;-55
2024/03/31 12:49:45;;;;;;;;;;;20.70;99.90;;;;;;5031844;28;19918;-58
2024/03/31 12:52:11;;;;;;;;;;;20.50;99.90;;;;;;5028791;28;19913;-60
2024/03/31 12:54:37;;;;;;;;;;;20.40;99.90;;;;;;5040301;28;19917;-59
2024/03/31 12:57:03;;;;;;;;;;;20.90;99.90;;;;;;5040217;28;19925;-60
2024/03/31 12:59:29;;;;;;;;;;;20.90;99.90;;;;;;5031998;28;20204;-59
2024/03/31 13:02:01;;;;;;;;;;;20.80;99.90;;;;;;5031929;28;19921;-54
2024/03/31 13:04:26;;;;;;;;;;;20.20;99.90;;;;;;5037616;28;20292;-57
2024/03/31 13:06:52;;;;;;;;;;;20.00;99.90;;;;;;5042896;28;19957;-57
2024/03/31 13:09:18;;;;;;;;;;;19.80;99.90;;;;;;5031197;28;20012;-58
2024/03/31 13:11:43;;;;;;;;;;;19.90;99.90;;;;;;5032543;28;19917;-56
2024/03/31 13:14:11;;;;;;;;;;;19.70;99.90;;;;;;5031604;28;19946;-58
2024/03/31 13:16:37;;;;;;;;;;;19.70;99.90;;;;;;5031210;28;19921;-53
2024/03/31 13:19:03;;;;;;;;;;;19.30;99.90;;;;;;5033479;28;20334;-57
2024/03/31 13:21:28;;;;;;;;;;;19.20;99.90;;;;;;5037945;28;19924;-52
2024/03/31 13:23:54;;;;;;;;;;;19.10;99.90;;;;;;5031531;28;19917;-53
2024/03/31 13:26:20;;;;;;;;;;;19.20;99.90;;;;;;5031804;28;19992;-56
2024/03/31 13:28:45;;;;;;;;;;;19.20;99.90;;;;;;5039716;28;19913;-57
2024/03/31 13:31:11;;;;;;;;;;;19.30;99.90;;;;;;5031632;28;19951;-52
2024/03/31 13:33:36;;;;;;;;;;;19.40;99.90;;;;;;5039948;28;19925;-55
2024/03/31 13:36:02;;;;;;;;;;;19.20;99.90;;;;;;5031280;28;19918;-53
2024/03/31 13:38:29;;;;;;;;;;;19.20;99.90;;;;;;5031306;28;20456;-56
2024/03/31 13:40:55;;;;;;;;;;;19.30;99.90;;;;;;5030892;28;20296;-56
2024/03/31 13:43:20;;;;;;;;;;;19.30;99.90;;;;;;5031545;28;19986;-56
2024/03/31 13:45:46;;;;;;;;;;;19.00;99.90;;;;;;5039614;28;19971;-55
2024/03/31 13:48:11;;;;;;;;;;;19.10;99.90;;;;;;5031203;28;20359;-52
2024/03/31 13:50:37;;;;;;;;;;;19.10;99.90;;;;;;5031188;28;19932;-58
2024/03/31 13:53:02;;;;;;;;;;;19.20;99.90;;;;;;5033692;28;20352;-56
2024/03/31 13:55:28;;;;;;;;;;;19.40;99.90;;;;;;5037312;28;19917;-57
2024/03/31 13:57:53;;;;;;;;;;;19.60;99.90;;;;;;5031861;28;19919;-53
2024/03/31 14:00:19;;;;;;;;;;;19.70;99.90;;;;;;5038153;28;19920;-57
2024/03/31 14:02:44;;;;;;;;;;;19.90;99.90;;;;;;5031268;28;19913;-56
2024/03/31 14:05:10;;;;;;;;;;;20.10;99.90;;;;;;5030711;28;20018;-55
2024/03/31 14:07:35;;;;;;;;;;;20.00;99.90;;;;;;5030764;28;19909;-53
2024/03/31 14:10:01;;;;;;;;;;;20.00;99.90;;;;;;5038531;28;20312;-54
2024/03/31 14:12:26;;;;;;;;;;;20.30;99.90;;;;;;5031195;28;20003;-56
2024/03/31 14:14:52;;;;;;;;;;;20.80;99.90;;;;;;5030859;28;19913;-60